Time;durP1;ratioP1;P1;durP2;ratioP2;P2;SDS_P1;SDS_P2;PMS_P1;PMS_P2;Temp;Humidity;BMP_temperature;BMP_pressure;BME280_temperature;BME280_humidity;BME280_pressure;Samples;Min_cycle;Max_cycle;Signal;HPM_P1;HPM_P2
2024/02/09 00:00:12;;;;;;;65.53;19.92;;;;;;;6.60;100.00;98770.53;5051832;28;20067;-83
2024/02/09 00:02:42;;;;;;;60.13;19.13;;;;;;;6.68;100.00;98772.38;5052101;28;20052;-83
2024/02/09 00:05:13;;;;;;;61.60;19.92;;;;;;;6.80;100.00;98764.94;5050879;28;20033;-82
2024/02/09 00:07:39;;;;;;;;;;;;;;;6.86;100.00;98754.50;5052726;28;20060;-82
2024/02/09 00:10:05;;;;;;;75.53;18.20;;;;;;;6.86;100.00;98749.22;5052354;28;19912;-83
2024/02/09 00:12:31;;;;;;;60.45;18.70;;;;;;;6.86;100.00;98741.28;5051944;28;20348;-83
2024/02/09 00:14:59;;;;;;;62.25;18.42;;;;;;;6.86;100.00;98743.94;5051933;28;20115;-82
2024/02/09 00:17:24;;;;;;;61.65;18.73;;;;;;;6.94;100.00;98739.63;5052003;28;20043;-83
2024/02/09 00:19:50;;;;;;;69.53;19.27;;;;;;;7.00;100.00;98734.53;5051756;28;20053;-83
2024/02/09 00:22:18;;;;;;;66.57;19.77;;;;;;;7.03;100.00;98733.34;5052252;28;20033;-83
2024/02/09 00:24:43;;;;;;;64.63;19.67;;;;;;;7.04;100.00;98721.78;5051964;28;20039;-83
2024/02/09 00:27:09;;;;;;;58.92;19.35;;;;;;;7.06;100.00;98722.44;5051689;28;20029;-84
2024/02/09 00:29:35;;;;;;;63.35;21.30;;;;;;;7.15;100.00;98731.19;5051716;28;20378;-83
2024/02/09 00:32:00;;;;;;;63.65;20.40;;;;;;;7.16;100.00;98716.97;5050128;28;20040;-84
2024/02/09 00:34:26;;;;;;;65.13;22.33;;;;;;;7.15;100.00;98702.94;5051804;28;20069;-85
2024/02/09 00:36:51;;;;;;;62.70;21.88;;;;;;;7.20;100.00;98705.06;5051524;28;20059;-84
2024/02/09 00:39:17;;;;;;;62.45;23.15;;;;;;;7.24;100.00;98703.72;5050837;28;20124;-83
2024/02/09 00:41:43;;;;;;;64.30;23.65;;;;;;;7.27;100.00;98702.53;5050290;28;20029;-83
2024/02/09 00:44:08;;;;;;;69.55;23.35;;;;;;;7.26;100.00;98696.44;5051553;28;20098;-84
2024/02/09 00:46:40;;;;;;;72.32;24.55;;;;;;;7.27;100.00;98690.16;5051738;28;20416;-83
2024/02/09 00:49:07;;;;;;;66.50;24.70;;;;;;;7.31;100.00;98686.16;5055140;28;20079;-83
2024/02/09 00:51:33;;;;;;;73.75;24.98;;;;;;;7.36;100.00;98677.72;5055562;28;20033;-84
2024/02/09 00:54:00;;;;;;;76.03;25.55;;;;;;;7.37;100.00;98674.06;5055289;28;20036;-83
2024/02/09 00:56:26;;;;;;;78.15;25.40;;;;;;;7.38;100.00;98681.03;5054756;28;20171;-83
2024/02/09 00:58:51;;;;;;;82.15;25.00;;;;;;;7.37;100.00;98669.59;5055161;28;20029;-83
2024/02/09 01:01:19;;;;;;;66.80;23.95;;;;;;;7.37;100.00;98666.97;5055456;28;20025;-83
2024/02/09 01:03:44;;;;;;;72.00;23.42;;;;;;;7.37;100.00;98658.19;5055905;28;20036;-83
2024/02/09 01:06:09;;;;;;;69.63;24.17;;;;;;;7.39;100.00;98651.75;5055183;28;20490;-84
2024/02/09 01:08:35;;;;;;;71.55;24.02;;;;;;;7.40;100.00;98644.63;5054812;28;20171;-83
2024/02/09 01:11:00;;;;;;;63.92;22.95;;;;;;;7.41;100.00;98646.28;5037469;28;20037;-83
2024/02/09 02:46:23;;;;;;;38.95;13.25;;;;;;;7.66;100.00;98519.09;5053209;28;20040;-86
2024/02/09 03:05:24;;;;;;;30.80;12.50;;;;;;;7.65;100.00;98475.94;5053644;28;20068;-83
2024/02/09 03:07:53;;;;;;;35.33;11.25;;;;;;;7.65;100.00;98470.66;5052786;28;20033;-84
2024/02/09 03:10:20;;;;;;;34.20;11.13;;;;;;;7.64;100.00;98471.63;5052666;28;20029;-82
2024/02/09 03:12:47;;;;;;;27.38;10.63;;;;;;;7.65;100.00;98478.59;5052996;28;20029;-83
2024/02/09 03:15:14;;;;;;;22.30;10.48;;;;;;;7.63;100.00;98464.72;5053017;28;20082;-81
2024/02/09 03:17:43;;;;;;;20.27;9.70;;;;;;;7.63;100.00;98467.38;5052836;28;20032;-83
2024/02/09 03:20:09;;;;;;;26.77;9.68;;;;;;;7.63;100.00;98464.72;5052714;28;20053;-84
2024/02/09 03:22:35;;;;;;;35.08;10.43;;;;;;;7.64;100.00;98462.88;5051906;28;20033;-84
2024/02/09 03:25:02;;;;;;;21.15;8.88;;;;;;;7.62;100.00;98447.19;5053776;28;20152;-84
2024/02/09 03:27:33;;;;;;;23.73;9.25;;;;;;;7.64;100.00;98452.31;5051976;28;20057;-86
2024/02/09 03:29:59;;;;;;;19.98;8.60;;;;;;;7.63;100.00;98446.19;5052627;28;20538;-83
2024/02/09 03:32:29;;;;;;;20.23;8.18;;;;;;;7.64;100.00;98445.19;5052716;28;20029;-82
2024/02/09 03:34:55;;;;;;;26.10;8.95;;;;;;;7.62;100.00;98447.19;5052531;28;20031;-83
2024/02/09 03:37:26;;;;;;;18.30;8.07;;;;;;;7.63;100.00;98440.06;5052699;28;20025;-82
2024/02/09 03:39:52;;;;;;;22.33;8.45;;;;;;;7.64;100.00;98442.53;5052420;28;20044;-84
2024/02/09 03:42:21;;;;;;;22.70;8.60;;;;;;;7.63;100.00;98440.06;5052591;28;20036;-82
2024/02/09 03:44:48;;;;;;;24.92;8.90;;;;;;;7.59;100.00;98436.97;5034370;28;20037;-81
2024/02/09 03:47:14;;;;;;;20.23;8.25;;;;;;;7.61;100.00;98434.94;5052052;28;20215;-82
2024/02/09 03:49:39;;;;;;;19.80;8.40;;;;;;;7.64;100.00;98431.13;5050571;28;20143;-82
2024/02/09 03:52:06;;;;;;;19.42;8.13;;;;;;;7.63;100.00;98434.78;5052017;28;20048;-81
2024/02/09 03:54:32;;;;;;;26.70;8.70;;;;;;;7.62;100.00;98433.97;5052308;28;20029;-84
2024/02/09 03:56:58;;;;;;;22.50;8.68;;;;;;;7.64;100.00;98421.34;5051947;28;20091;-81
2024/02/09 03:59:23;;;;;;;19.00;8.85;;;;;;;7.63;100.00;98425.03;5052100;28;20335;-81
2024/02/09 04:01:49;;;;;;;21.83;8.45;;;;;;;7.63;100.00;98426.81;5051989;28;20150;-81
2024/02/09 04:04:14;;;;;;;18.33;8.38;;;;;;;7.60;100.00;98422.75;5051293;28;20029;-81
2024/02/09 04:06:39;;;;;;;17.25;8.73;;;;;;;7.62;100.00;98415.44;5051920;28;20115;-82
2024/02/09 04:09:08;;;;;;;19.30;9.15;;;;;;;7.62;100.00;98428.66;5052237;28;20040;-82
2024/02/09 04:11:34;;;;;;;18.50;8.63;;;;;;;7.65;100.00;98412.44;5052126;28;20471;-82
2024/02/09 04:13:59;;;;;;;19.20;8.93;;;;;;;7.64;100.00;98412.59;5052020;28;20040;-82
2024/02/09 04:16:26;;;;;;;19.23;10.18;;;;;;;7.67;100.00;98412.25;5052165;28;20032;-81
2024/02/09 04:18:51;;;;;;;20.90;9.65;;;;;;;7.67;100.00;98405.13;5051831;28;20124;-81
2024/02/09 04:21:17;;;;;;;20.65;9.32;;;;;;;7.71;100.00;98405.59;5053135;28;20131;-81
2024/02/09 04:23:42;;;;;;;20.45;10.35;;;;;;;7.73;100.00;98404.41;5056281;28;20036;-82
2024/02/09 04:26:09;;;;;;;19.60;9.88;;;;;;;7.72;100.00;98402.78;5056282;28;20048;-82
2024/02/09 04:28:35;;;;;;;22.65;10.98;;;;;;;7.70;100.00;98406.59;5055776;28;20447;-81
2024/02/09 04:31:00;;;;;;;24.92;11.00;;;;;;;7.70;100.00;98406.59;5055861;28;20029;-82
2024/02/09 04:33:26;;;;;;;20.92;11.48;;;;;;;7.69;100.00;98397.03;5056338;28;20061;-81
2024/02/09 04:35:52;;;;;;;22.52;11.68;;;;;;;7.71;100.00;98390.53;5037486;28;20056;-82
2024/02/09 04:38:18;;;;;;;20.75;11.77;;;;;;;7.73;100.00;98393.00;5056126;28;20029;-81
2024/02/09 04:40:44;;;;;;;24.08;11.55;;;;;;;7.73;100.00;98387.69;5056024;28;20536;-82
2024/02/09 04:43:09;;;;;;;26.40;12.70;;;;;;;7.70;100.00;98383.59;5055637;28;20031;-83
2024/02/09 04:45:35;;;;;;;26.67;12.65;;;;;;;7.71;100.00;98384.41;5054370;28;20063;-83
2024/02/09 04:48:00;;;;;;;25.63;11.20;;;;;;;7.70;100.00;98394.19;5055908;28;20115;-84
2024/02/09 04:50:25;;;;;;;18.98;10.48;;;;;;;7.69;100.00;98387.25;5055609;28;20033;-83
2024/02/09 04:52:51;;;;;;;26.30;10.70;;;;;;;7.68;100.00;98377.66;5055497;28;20028;-84
2024/02/09 04:55:17;;;;;;;18.90;10.65;;;;;;;7.66;100.00;98379.66;5055519;28;20024;-84
2024/02/09 04:57:43;;;;;;;21.05;10.30;;;;;;;7.66;100.00;98376.19;5055649;28;20021;-84
2024/02/09 05:00:09;;;;;;;22.60;9.95;;;;;;;7.67;100.00;98376.00;5055116;28;20516;-84
2024/02/09 05:02:37;;;;;;;25.35;9.02;;;;;;;7.66;100.00;98376.19;5055562;28;20024;-84
2024/02/09 05:05:12;;;;;;;19.42;8.75;;;;;;;7.63;100.00;98372.09;5055411;28;20040;-83
2024/02/09 05:07:38;;;;;;;23.15;9.55;;;;;;;7.66;100.00;98369.09;5055206;28;20036;-82
2024/02/09 05:10:04;;;;;;;30.17;9.48;;;;;;;7.67;100.00;98376.00;5054534;28;20050;-84
2024/02/09 05:12:32;;;;;;;20.35;9.32;;;;;;;7.68;100.00;98375.00;5055026;28;20033;-84
2024/02/09 05:14:58;;;;;;;26.27;9.13;;;;;;;7.67;100.00;98369.91;5055377;28;20154;-84
2024/02/09 05:17:26;;;;;;;21.13;8.90;;;;;;;7.67;100.00;98367.25;5055389;28;20112;-84
2024/02/09 05:19:57;;;;;;;19.33;8.50;;;;;;;7.63;100.00;98363.31;5054716;28;20108;-84
2024/02/09 05:22:22;;;;;;;14.40;8.40;;;;;;;7.63;100.00;98360.66;5055614;28;20036;-84
2024/02/09 05:24:47;;;;;;;18.23;7.80;;;;;;;7.61;100.00;98355.56;5054799;28;20037;-84
2024/02/09 05:27:13;;;;;;;19.40;7.50;;;;;;;7.60;100.00;98356.56;5055017;28;20063;-84
2024/02/09 05:29:38;;;;;;;16.85;7.63;;;;;;;7.61;100.00;98355.56;5053907;28;20040;-84
2024/02/09 05:32:04;;;;;;;18.88;7.45;;;;;;;7.60;100.00;98348.63;5054842;28;20029;-84
2024/02/09 05:34:29;;;;;;;16.52;7.00;;;;;;;7.57;100.00;98349.00;5054337;28;20067;-84
2024/02/09 05:36:55;;;;;;;16.30;7.22;;;;;;;7.55;100.00;98343.88;5055145;28;20040;-83
2024/02/09 05:39:20;;;;;;;18.27;6.90;;;;;;;7.57;100.00;98338.41;5054703;28;20386;-83
2024/02/09 05:41:45;;;;;;;16.83;7.47;;;;;;;7.58;100.00;98337.38;5055272;28;20327;-83
2024/02/09 05:44:12;;;;;;;15.82;6.88;;;;;;;7.57;100.00;98338.41;5054496;28;20040;-83
2024/02/09 05:46:37;;;;;;;18.20;6.85;;;;;;;7.62;100.00;98338.69;5054124;28;20068;-85
2024/02/09 05:49:06;;;;;;;14.43;6.60;;;;;;;7.64;100.00;98335.84;5054058;28;20056;-84
2024/02/09 05:51:32;;;;;;;16.65;6.50;;;;;;;7.63;100.00;98339.50;5054498;28;20025;-84
2024/02/09 05:53:57;;;;;;;13.05;6.25;;;;;;;7.65;100.00;98340.16;5054067;28;20032;-84
2024/02/09 05:56:27;;;;;;;19.33;6.38;;;;;;;7.65;100.00;98337.50;5054140;28;20336;-83
2024/02/09 05:58:56;;;;;;;16.80;6.82;;;;;;;7.65;100.00;98333.03;5054498;28;20594;-83
2024/02/09 06:01:28;;;;;;;14.05;6.65;;;;;;;7.63;100.00;98326.25;5052874;28;20036;-85
2024/02/09 06:03:54;;;;;;;14.98;5.45;;;;;;;7.64;100.00;98327.91;5054418;28;20037;-83
2024/02/09 06:06:20;;;;;;;11.20;5.82;;;;;;;7.63;100.00;98320.97;5052203;28;20506;-84
2024/02/09 06:08:47;;;;;;;17.20;5.65;;;;;;;7.65;100.00;98325.09;5053794;28;20037;-85
2024/02/09 06:11:15;;;;;;;16.30;6.00;;;;;;;7.68;100.00;98326.56;5053695;28;20039;-86
2024/02/09 06:13:44;;;;;;;16.58;5.65;;;;;;;7.69;100.00;98325.56;5053656;28;20115;-85
2024/02/09 06:16:20;;;;;;;14.00;6.10;;;;;;;7.67;100.00;98315.13;5053540;28;20553;-84
2024/02/09 06:18:45;;;;;;;10.27;5.50;;;;;;;7.67;100.00;98315.13;5052719;28;20139;-86
2024/02/09 06:21:15;;;;;;;19.55;5.22;;;;;;;7.71;100.00;98311.13;5052331;28;20543;-83
2024/02/09 06:23:43;;;;;;;8.75;5.15;;;;;;;7.71;100.00;98313.75;5053418;28;20083;-85
2024/02/09 06:26:14;;;;;;;14.30;5.50;;;;;;;7.72;100.00;98318.06;5053470;28;20029;-86
2024/02/09 06:28:39;;;;;;;19.50;5.97;;;;;;;7.76;100.00;98310.56;5054195;28;20032;-86
2024/02/09 06:31:05;;;;;;;15.35;5.53;;;;;;;7.77;100.00;98312.22;5054009;28;20049;-84
2024/02/09 06:33:30;;;;;;;20.85;4.97;;;;;;;7.78;100.00;98300.63;5053231;28;20466;-83
2024/02/09 06:35:56;;;;;;;22.50;5.10;;;;;;;7.79;100.00;98309.38;5053088;28;20024;-85
2024/02/09 06:38:21;;;;;;;23.52;5.50;;;;;;;7.81;100.00;98310.03;5053357;28;20463;-83
2024/02/09 06:40:47;;;;;;;21.25;5.68;;;;;;;7.84;100.00;98310.50;5054012;28;20029;-83
2024/02/09 06:43:16;;;;;;;13.77;5.30;;;;;;;7.85;100.00;98321.88;5053070;28;20387;-82
2024/02/09 06:45:41;;;;;;;15.10;5.50;;;;;;;7.85;100.00;98303.34;5051116;28;20036;-83
2024/02/09 06:48:07;;;;;;;14.57;5.35;;;;;;;7.88;100.00;98305.63;5052841;28;20029;-83
2024/02/09 06:50:35;;;;;;;20.73;6.03;;;;;;;7.91;100.00;98307.91;5053179;28;20053;-84
2024/02/09 06:53:07;;;;;;;18.67;6.57;;;;;;;7.88;100.00;98306.47;5053632;28;20040;-84
2024/02/09 06:55:33;;;;;;;16.88;6.55;;;;;;;7.85;100.00;98300.72;5052119;28;20025;-84
2024/02/09 06:57:59;;;;;;;13.52;5.65;;;;;;;7.86;100.00;98308.47;5052913;28;20459;-85
2024/02/09 07:00:27;;;;;;;12.85;5.43;;;;;;;7.86;100.00;98307.66;5051557;28;20115;-84
2024/02/09 07:02:53;;;;;;;20.10;6.22;;;;;;;7.83;100.00;98300.91;5052862;28;20029;-83
2024/02/09 07:05:19;;;;;;;17.63;5.57;;;;;;;7.87;100.00;98302.19;5053040;28;20040;-87
2024/02/09 07:07:49;;;;;;;15.32;5.43;;;;;;;7.88;100.00;98308.28;5052680;28;20067;-87
2024/02/09 07:10:16;;;;;;;13.15;5.80;;;;;;;7.89;100.00;98310.75;5052732;28;20025;-86
2024/02/09 07:12:42;;;;;;;10.02;4.75;;;;;;;7.90;100.00;98303.66;5052420;28;20061;-83
2024/02/09 07:15:08;;;;;;;14.82;5.43;;;;;;;7.89;100.00;98308.09;5052476;28;20060;-86
2024/02/09 07:17:35;;;;;;;15.30;5.65;;;;;;;7.89;100.00;98296.69;5052573;28;20131;-82
2024/02/09 07:20:03;;;;;;;19.70;5.32;;;;;;;7.89;100.00;98304.66;5052395;28;20470;-84
2024/02/09 07:22:35;;;;;;;12.55;5.20;;;;;;;7.88;100.00;98305.63;5052786;28;20036;-85
2024/02/09 07:25:03;;;;;;;18.30;5.32;;;;;;;7.90;100.00;98308.94;5053133;28;20045;-83
2024/02/09 07:27:29;;;;;;;13.35;5.10;;;;;;;7.90;100.00;98322.19;5052490;28;20033;-83
2024/02/09 07:29:55;;;;;;;15.30;5.47;;;;;;;7.89;100.00;98318.69;5034893;28;20099;-80
2024/02/09 07:32:20;;;;;;;19.95;6.05;;;;;;;7.92;100.00;98325.44;5052627;28;20025;-84
2024/02/09 07:34:49;;;;;;;16.77;6.28;;;;;;;7.94;100.00;98318.97;5051559;28;20116;-84
2024/02/09 07:37:15;;;;;;;15.77;5.57;;;;;;;7.95;100.00;98322.44;5050916;28;20037;-83
2024/02/09 07:39:41;;;;;;;8.73;4.68;;;;;;;8.00;100.00;98321.88;5053038;28;20079;-81
2024/02/09 07:42:08;;;;;;;14.65;5.65;;;;;;;8.01;100.00;98318.25;5052971;28;20442;-82
2024/02/09 07:44:36;;;;;;;14.95;6.07;;;;;;;7.99;100.00;98336.16;5053415;28;20446;-85
2024/02/09 07:47:04;;;;;;;16.27;5.40;;;;;;;7.99;100.00;98330.84;5053260;28;20119;-82
2024/02/09 07:49:31;;;;;;;21.33;6.40;;;;;;;7.99;100.00;98334.31;5052947;28;20040;-81
2024/02/09 07:51:58;;;;;;;12.77;5.57;;;;;;;8.01;100.00;98329.66;5052957;28;20040;-81
2024/02/09 07:54:26;;;;;;;12.43;4.65;;;;;;;8.05;100.00;98332.75;5053093;28;20175;-82
2024/02/09 07:56:52;;;;;;;15.43;5.30;;;;;;;8.04;100.00;98339.06;5053033;28;20029;-81
2024/02/09 07:59:18;;;;;;;15.38;5.25;;;;;;;8.06;100.00;98340.53;5052777;28;20321;-81
2024/02/09 08:01:44;;;;;;;13.60;5.40;;;;;;;8.12;100.00;98338.94;5052589;28;20174;-83
2024/02/09 08:04:09;;;;;;;17.60;5.43;;;;;;;8.10;100.00;98336.47;5052986;28;20025;-81
2024/02/09 08:06:34;;;;;;;12.38;5.53;;;;;;;8.11;100.00;98340.78;5052977;28;20040;-80
2024/02/09 08:09:00;;;;;;;14.07;5.30;;;;;;;8.15;100.00;98353.66;5052931;28;20037;-81
2024/02/09 08:11:26;;;;;;;14.82;5.15;;;;;;;8.17;100.00;98341.06;5051405;28;20162;-81
2024/02/09 08:13:52;;;;;;;8.35;4.93;;;;;;;8.22;100.00;98342.13;5052739;28;20033;-78
2024/02/09 08:16:18;;;;;;;15.00;5.38;;;;;;;8.28;100.00;98345.88;5051314;28;20488;-78
2024/02/09 08:18:43;;;;;;;13.85;5.30;;;;;;;8.33;100.00;98335.56;5052583;28;20104;-77
2024/02/09 08:21:09;;;;;;;11.32;5.65;;;;;;;8.38;100.00;98342.94;5052758;28;20059;-80
2024/02/09 08:23:34;;;;;;;11.18;4.45;;;;;;;8.43;100.00;98340.56;5052384;28;20053;-78
2024/02/09 08:26:00;;;;;;;7.03;4.15;;;;;;;8.43;100.00;98348.50;5052499;28;20339;-79
2024/02/09 08:28:25;;;;;;;14.38;5.22;;;;;;;8.44;100.00;98350.19;5051213;28;20443;-83
2024/02/09 08:30:51;;;;;;;11.48;4.43;;;;;;;8.45;100.00;98365.09;5052055;28;20483;-86
2024/02/09 08:33:17;;;;;;;11.05;4.47;;;;;;;8.43;100.00;98357.28;5050655;28;20029;-82
2024/02/09 08:35:44;;;;;;;12.55;4.40;;;;;;;8.44;100.00;98356.28;5052522;28;20086;-82
2024/02/09 08:38:09;;;;;;;9.05;4.30;;;;;;;8.44;100.00;98358.13;5034842;28;20033;-85
2024/02/09 08:40:35;;;;;;;12.52;4.43;;;;;;;8.49;100.00;98354.91;5050694;28;20040;-82
2024/02/09 08:43:01;;;;;;;8.00;4.10;;;;;;;8.52;100.00;98360.66;5052215;28;20056;-82
2024/02/09 08:45:27;;;;;;;12.75;4.20;;;;;;;8.57;100.00;98370.69;5051070;28;20029;-81
2024/02/09 08:47:53;;;;;;;12.85;4.68;;;;;;;8.61;100.00;98371.97;5052333;28;20051;-83
2024/02/09 08:50:18;;;;;;;10.55;3.95;;;;;;;8.64;100.00;98376.91;5050499;28;20471;-78
2024/02/09 08:52:44;;;;;;;11.90;4.53;;;;;;;8.64;100.00;98379.56;5051940;28;20031;-80
2024/02/09 08:55:10;;;;;;;9.23;3.72;;;;;;;8.64;100.00;98380.41;5052408;28;20051;-81
2024/02/09 08:57:35;;;;;;;10.65;4.18;;;;;;;8.63;100.00;98373.44;5052131;28;20037;-81
2024/02/09 09:00:01;;;;;;;11.25;3.83;;;;;;;8.63;100.00;98377.94;5051931;28;20462;-85
2024/02/09 09:02:26;;;;;;;10.63;3.95;;;;;;;8.61;100.00;98377.28;5051736;28;20047;-84
2024/02/09 09:04:52;;;;;;;10.65;3.70;;;;;;;8.64;100.00;98376.91;5051759;28;20037;-82
2024/02/09 09:07:17;;;;;;;8.52;3.42;;;;;;;8.71;100.00;98384.94;5052420;28;20033;-83
2024/02/09 09:09:43;;;;;;;13.18;3.75;;;;;;;8.78;100.00;98394.59;5054832;28;20104;-81
2024/02/09 09:12:09;;;;;;;9.63;3.65;;;;;;;8.81;100.00;98382.81;5054295;28;20033;-79
2024/02/09 09:14:36;;;;;;;6.95;3.22;;;;;;;8.84;100.00;98395.69;5055398;28;20074;-80
2024/02/09 09:17:01;;;;;;;10.80;3.75;;;;;;;8.82;100.00;98385.28;5055313;28;20056;-80
2024/02/09 09:19:27;;;;;;;9.13;3.38;;;;;;;8.85;100.00;98386.72;5055455;28;20060;-82
2024/02/09 09:21:52;;;;;;;9.80;3.33;;;;;;;8.89;100.00;98387.97;5055974;28;20084;-81
2024/02/09 09:24:17;;;;;;;13.73;4.47;;;;;;;9.06;100.00;98387.75;5055574;28;20032;-79
2024/02/09 09:26:43;;;;;;;9.18;3.40;;;;;;;9.10;100.00;98394.31;5054188;28;20045;-79
2024/02/09 09:29:08;;;;;;;8.57;3.20;;;;;;;9.04;100.00;98385.28;5055119;28;20040;-79
2024/02/09 09:31:33;;;;;;;12.20;3.88;;;;;;;9.03;100.00;98393.44;5055292;28;20115;-79
2024/02/09 09:33:59;;;;;;;8.88;3.72;;;;;;;8.99;100.00;98391.16;5055469;28;20167;-80
2024/02/09 09:36:30;;;;;;;11.80;4.47;;;;;;;9.04;100.00;98392.44;5055143;28;20032;-80
2024/02/09 09:38:56;;;;;;;;;;;;;;;9.24;100.00;98397.91;5039109;28;20136;-78
2024/02/09 09:41:21;;;;;;;7.75;3.35;;;;;;;9.30;100.00;98399.81;5055477;28;20331;-82
2024/02/09 09:43:47;;;;;;;9.98;3.75;;;;;;;9.33;100.00;98394.94;5053960;28;20037;-80
2024/02/09 09:46:12;;;;;;;11.40;3.70;;;;;;;9.35;100.00;98390.25;5055028;28;20022;-81
2024/02/09 09:48:39;;;;;;;10.32;3.83;;;;;;;9.43;100.00;98389.31;5054960;28;20395;-79
2024/02/09 09:51:08;;;;;;;9.98;3.25;;;;;;;9.46;100.00;98398.72;5055021;28;20035;-82
2024/02/09 09:53:40;;;;;;;9.35;3.38;;;;;;;9.46;100.00;98391.56;5055060;28;20039;-79
2024/02/09 09:56:10;;;;;;;12.68;3.25;;;;;;;9.50;100.00;98395.50;5053585;28;20104;-79
2024/02/09 09:58:36;;;;;;;8.98;3.22;;;;;;;9.53;100.00;98391.63;5054377;28;20433;-80
2024/02/09 10:01:07;;;;;;;7.43;2.90;;;;;;;9.51;100.00;98399.00;5054708;28;20379;-81
2024/02/09 10:03:33;;;;;;;13.43;3.03;;;;;;;9.53;100.00;98394.28;5054077;28;20040;-79
2024/02/09 10:05:59;;;;;;;9.15;3.60;;;;;;;9.55;100.00;98388.78;5053385;28;20033;-79
2024/02/09 10:08:24;;;;;;;9.80;3.10;;;;;;;9.61;100.00;98390.69;5054987;28;20067;-79
2024/02/09 10:10:53;;;;;;;9.70;2.80;;;;;;;9.67;100.00;98400.53;5054964;28;20102;-80
2024/02/09 10:13:22;;;;;;;10.60;2.95;;;;;;;9.78;100.00;98396.50;5054544;28;20360;-80
2024/02/09 10:15:49;;;;;;;10.98;3.20;;;;;;;9.89;100.00;98404.75;5054323;28;20029;-80
2024/02/09 10:18:15;;;;;;;10.32;3.15;;;;;;;9.98;100.00;98400.13;5054916;28;20063;-80
2024/02/09 10:20:40;;;;;;;5.57;2.42;;;;;;;10.05;100.00;98408.97;5053764;28;20447;-81
2024/02/09 10:23:06;;;;;;;5.75;2.60;;;;;;;10.12;100.00;98409.03;5052992;28;20041;-80
2024/02/09 10:25:35;;;;;;;6.03;2.80;;;;;;;10.23;100.00;98404.97;5054704;28;20060;-80
2024/02/09 10:28:01;;;;;;;8.07;3.08;;;;;;;10.23;100.00;98404.97;5054179;28;20025;-80
2024/02/09 10:30:28;;;;;;;9.05;2.60;;;;;;;10.25;100.00;98402.94;5053920;28;20037;-80
2024/02/09 10:32:55;;;;;;;8.00;2.47;;;;;;;10.17;100.00;98408.44;5054325;28;20382;-81
2024/02/09 10:35:20;;;;;;;10.05;2.53;;;;;;;10.08;100.00;98410.41;5054061;28;20535;-80
2024/02/09 10:37:46;;;;;;;7.38;2.67;;;;;;;9.93;100.00;98409.69;5054042;28;20033;-81
2024/02/09 10:40:12;;;;;;;7.13;2.30;;;;;;;9.83;100.00;98418.81;5054624;28;20171;-81
2024/02/09 10:42:40;;;;;;;5.38;2.60;;;;;;;9.77;100.00;98424.09;5053928;28;20107;-79
2024/02/09 10:45:09;;;;;;;5.03;2.30;;;;;;;9.79;100.00;98422.06;5054176;28;20036;-81
2024/02/09 10:47:37;;;;;;;9.77;2.75;;;;;;;9.97;100.00;98424.22;5052454;28;20032;-80
2024/02/09 10:50:04;;;;;;;6.07;2.60;;;;;;;10.14;100.00;98427.41;5052486;28;20035;-81
2024/02/09 10:52:32;;;;;;;6.30;2.45;;;;;;;10.14;100.00;98430.88;5053630;28;20033;-82
2024/02/09 10:54:59;;;;;;;6.70;2.55;;;;;;;10.14;100.00;98430.88;5054099;28;20108;-82
2024/02/09 10:57:27;;;;;;;4.05;2.63;;;;;;;10.30;100.00;98426.25;5053215;28;20395;-79
2024/02/09 10:59:53;;;;;;;5.13;1.98;;;;;;;10.35;100.00;98422.03;5053588;28;20061;-81
2024/02/09 11:02:18;;;;;;;9.50;2.78;;;;;;;10.38;100.00;98429.63;5054013;28;20037;-80
2024/02/09 11:04:44;;;;;;;7.82;2.42;;;;;;;10.40;100.00;98424.94;5053379;28;20082;-80
2024/02/09 11:07:14;;;;;;;6.00;2.50;;;;;;;10.50;100.00;98416.59;5053482;28;20036;-80
2024/02/09 11:09:43;;;;;;;6.00;2.35;;;;;;;10.61;100.00;98419.72;5052197;28;20094;-81
2024/02/09 11:12:12;;;;;;;6.40;2.30;;;;;;;10.83;100.00;98417.75;5053279;28;20457;-81
2024/02/09 11:14:38;;;;;;;6.90;2.30;;;;;;;11.20;100.00;98405.75;5052993;28;20037;-81
2024/02/09 11:17:08;;;;;;;3.17;1.92;;;;;;;11.52;100.00;98403.31;5053238;28;20029;-79
2024/02/09 11:19:38;;;;;;;4.75;1.70;;;;;;;11.59;100.00;98387.34;5053592;28;20036;-80
2024/02/09 11:22:05;;;;;;;5.22;1.75;;;;;;;11.71;100.00;98383.03;5051402;28;20049;-79
2024/02/09 11:24:31;;;;;;;6.43;1.95;;;;;;;11.91;100.00;98384.84;5052827;28;20056;-80
2024/02/09 11:27:01;;;;;;;6.30;2.40;;;;;;;12.00;100.00;98378.28;5052365;28;20132;-80
2024/02/09 11:29:27;;;;;;;5.75;2.05;;;;;;;11.92;100.00;98378.50;5052298;28;20087;-79
2024/02/09 11:31:56;;;;;;;7.80;2.10;;;;;;;12.05;100.00;98391.03;5053180;28;20409;-85
2024/02/09 11:34:23;;;;;;;3.58;1.48;;;;;;;12.06;100.00;98381.97;5053303;28;20068;-80
2024/02/09 11:36:49;;;;;;;6.15;1.90;;;;;;;12.09;100.00;98385.06;5051883;28;20474;-80
2024/02/09 11:39:16;;;;;;;3.92;1.70;;;;;;;11.89;100.00;98390.38;5052905;28;20075;-84
2024/02/09 11:41:42;;;;;;;5.25;1.75;;;;;;;11.83;100.00;98377.91;5053529;28;20029;-80
2024/02/09 11:44:08;;;;;;;6.03;1.77;;;;;;;11.81;100.00;98390.63;5052571;28;20119;-79
2024/02/09 11:46:35;;;;;;;5.53;1.98;;;;;;;11.63;100.00;98391.25;5052804;28;20423;-83
2024/02/09 11:49:02;;;;;;;3.33;1.40;;;;;;;11.40;100.00;98397.78;5052591;28;20086;-79
2024/02/09 11:51:27;;;;;;;7.45;1.70;;;;;;;11.23;100.00;98400.03;5051581;28;20032;-82
2024/02/09 11:53:56;;;;;;;6.95;1.48;;;;;;;11.19;100.00;98396.13;5052557;28;20471;-80
2024/02/09 11:56:23;;;;;;;6.40;1.70;;;;;;;11.08;100.00;98391.41;5054042;28;20067;-83
2024/02/09 11:58:49;;;;;;;4.00;1.52;;;;;;;11.01;100.00;98386.06;5054166;28;20043;-81
2024/02/09 12:01:18;;;;;;;4.28;1.02;;;;;;;11.02;100.00;98390.38;5035815;28;20570;-82
2024/02/09 12:03:44;;;;;;;5.88;1.20;;;;;;;10.97;100.00;98387.47;5052632;28;20029;-82
2024/02/09 12:06:10;;;;;;;5.07;1.25;;;;;;;10.96;100.00;98390.34;5052562;28;20162;-81
2024/02/09 12:08:36;;;;;;;6.40;1.73;;;;;;;10.84;100.00;98382.13;5053598;28;20040;-81
2024/02/09 12:11:02;;;;;;;2.67;1.20;;;;;;;10.97;100.00;98382.16;5052700;28;20514;-80
2024/02/09 12:13:28;;;;;;;6.20;1.88;;;;;;;11.22;100.00;98385.06;5050922;28;20033;-80
2024/02/09 12:15:54;;;;;;;4.78;1.20;;;;;;;11.42;100.00;98374.44;5052588;28;20459;-82
2024/02/09 12:18:26;;;;;;;8.82;2.28;;;;;;;11.63;100.00;98380.59;5053120;28;20086;-86
2024/02/09 12:20:54;;;;;;;9.68;1.85;;;;;;;11.65;100.00;98387.34;5052726;28;20025;-81
2024/02/09 12:23:22;;;;;;;7.03;1.58;;;;;;;11.68;100.00;98383.44;5052265;28;20083;-81
2024/02/09 12:25:48;;;;;;;6.72;1.70;;;;;;;11.72;100.00;98386.50;5052657;28;20374;-88
2024/02/09 12:28:23;;;;;;;7.55;1.80;;;;;;;11.67;100.00;98381.81;5051438;28;20078;-81
2024/02/09 12:30:49;;;;;;;5.25;1.98;;;;;;;11.59;100.00;98388.16;5050631;28;20093;-83
2024/02/09 12:33:19;;;;;;;12.27;2.45;;;;;;;11.40;100.00;98376.47;5052653;28;20029;-83
2024/02/09 12:35:45;;;;;;;6.25;1.98;;;;;;;11.40;100.00;98373.00;5052231;28;20083;-82
2024/02/09 12:38:15;;;;;;;4.90;1.70;;;;;;;11.44;100.00;98376.91;5050935;28;20029;-80
2024/02/09 12:40:43;;;;;;;8.20;1.83;;;;;;;11.49;100.00;98384.28;5051917;28;20037;-79
2024/02/09 12:43:13;;;;;;;5.72;1.85;;;;;;;11.35;100.00;98383.47;5052496;28;20542;-79
2024/02/09 12:45:41;;;;;;;9.25;2.13;;;;;;;11.35;100.00;98392.25;5056294;28;20083;-82
2024/02/09 12:48:07;;;;;;;11.52;2.83;;;;;;;11.25;100.00;98389.97;5055902;28;20062;-80
2024/02/09 12:50:33;;;;;;;6.38;2.20;;;;;;;11.20;100.00;98396.97;5055326;28;20154;-81
2024/02/09 12:52:59;;;;;;;11.57;2.10;;;;;;;11.11;100.00;98397.13;5056068;28;20044;-79
2024/02/09 12:55:25;;;;;;;9.10;1.98;;;;;;;11.08;100.00;98394.06;5056415;28;20054;-79
2024/02/09 12:57:52;;;;;;;6.50;1.90;;;;;;;11.17;100.00;98397.38;5056262;28;20083;-79
2024/02/09 13:00:18;;;;;;;9.52;2.10;;;;;;;11.33;100.00;98391.66;5056181;28;20131;-78
2024/02/09 13:02:44;;;;;;;6.25;2.45;;;;;;;11.40;100.00;98395.13;5056247;28;20071;-80
2024/02/09 13:05:10;;;;;;;10.02;2.22;;;;;;;11.29;100.00;98391.22;5056193;28;20037;-81
2024/02/09 13:07:35;;;;;;;7.03;2.05;;;;;;;11.39;100.00;98390.84;5056159;28;20021;-82
2024/02/09 13:10:01;;;;;;;5.20;1.60;;;;;;;11.40;100.00;98394.31;5056352;28;20500;-79